METAR Data
IDs: Format: Raw Decoded Include TAF

Data at: 1918 UTC 14 Dec 2018

KPPA 141855Z AUTO 34013KT 10SM CLR 10/M14 A3028 RMK AO2 T00951138
KPPA 141835Z AUTO 36016G19KT 10SM CLR 09/M15 A3029 RMK AO2 T00941148
KPPA 141815Z AUTO 35015G20KT 10SM CLR 09/M15 A3030 RMK AO2 T00881151
KPPA 141755Z AUTO 36017G20KT 10SM CLR 08/M14 A3030 RMK AO2 T00831138 10083 21072
KPPA 141735Z AUTO 35017KT 10SM CLR 07/M13 A3032 RMK AO2 T00741128
KPPA 141715Z AUTO 34015G22KT 10SM CLR 06/M12 A3032 RMK AO2 T00611116
KPPA 141655Z AUTO 35016G22KT 10SM CLR 05/M12 A3032 RMK AO2 T00521121
KPPA 141635Z AUTO 35019G23KT 10SM CLR 04/M12 A3032 RMK AO2 T00441116
KPPA 141615Z AUTO 35016G22KT 10SM CLR 03/M12 A3032 RMK AO2 T00341117
KPPA 141555Z AUTO 34016G20KT 10SM CLR 02/M11 A3032 RMK AO2 T00231109
KPPA 141535Z AUTO 33013G19KT 10SM CLR 00/M10 A3030 RMK AO2 T00031099
KPPA 141515Z AUTO 32011KT 10SM CLR M01/M09 A3030 RMK AO2 T10121093
KPPA 141455Z AUTO 29007KT 10SM CLR M03/M09 A3030 RMK AO2 T10351095
KPPA 141435Z AUTO 29007KT 10SM CLR M05/M10 A3028 RMK AO2 T10491100
KPPA 141415Z AUTO 30008KT 10SM CLR M06/M10 A3028 RMK AO2 T10601105
KPPA 141355Z AUTO 31010KT 10SM CLR M07/M11 A3027 RMK AO2 T10671106
KPPA 141335Z AUTO 30009KT 10SM CLR M06/M11 A3027 RMK AO2 T10651108
KPPA 141315Z AUTO 31009KT 10SM CLR M05/M11 A3026 RMK AO2 T10551106
KPPA 141255Z AUTO 31009KT 10SM CLR M05/M11 A3025 RMK AO2 T10491106
KPPA 141235Z AUTO 31012KT 10SM CLR M05/M10 A3024 RMK AO2 T10511104
KPPA 141215Z AUTO 29009KT 10SM CLR M07/M11 A3024 RMK AO2 T10691112
KPPA 141155Z AUTO 31008KT 10SM CLR M07/M11 A3023 RMK AO2 T10671109 11004 21072
KPPA 141135Z AUTO 31010KT 10SM CLR M07/M11 A3023 RMK AO2 T10691111
KPPA 141115Z AUTO 32011KT 10SM CLR M04/M10 A3022 RMK AO2 T10451102
KPPA 141055Z AUTO 33016KT 10SM CLR M04/M10 A3022 RMK AO2 T10381100
KPPA 141035Z AUTO 33016KT 10SM CLR M04/M10 A3021 RMK AO2 T10381098
KPPA 141015Z AUTO 31010KT 10SM CLR M04/M10 A3022 RMK AO2 T10381098
KPPA 140955Z AUTO 32013KT 10SM CLR M03/M10 A3021 RMK AO2 T10351097
KPPA 140935Z AUTO 31010KT 10SM CLR M04/M10 A3022 RMK AO2 T10401100
KPPA 140915Z AUTO 32012KT 10SM CLR M03/M10 A3022 RMK AO2 T10301098
KPPA 140855Z AUTO 33014KT 10SM CLR M02/M10 A3022 RMK AO2 T10251097
KPPA 140835Z AUTO 33014KT 10SM CLR M02/M10 A3022 RMK AO2 T10231096
KPPA 140815Z AUTO 33013KT 10SM CLR M02/M09 A3022 RMK AO2 T10171095
KPPA 140755Z AUTO 34014KT 10SM CLR M01/M09 A3021 RMK AO2 T10121094
KPPA 140735Z AUTO 34015KT 10SM CLR M01/M09 A3021 RMK AO2 T10131092
KPPA 140715Z AUTO 34016KT 10SM CLR M01/M09 A3020 RMK AO2 T10101091
KPPA 140655Z AUTO 35019KT 10SM CLR 00/M09 A3020 RMK AO2 T10051090
KPPA 140635Z AUTO 35020KT 10SM CLR 00/M09 A3019 RMK AO2 T10051090
KPPA 140615Z AUTO 34016KT 10SM CLR M01/M09 A3020 RMK AO2 T10071090
KPPA 140555Z AUTO 35017KT 10SM CLR 00/M09 A3019 RMK AO2 T10041091 10050 21004 400761004
KPPA 140535Z AUTO 35016KT 10SM CLR 00/M09 A3020 RMK AO2 T10011092
KPPA 140515Z AUTO 35019G23KT 10SM CLR 00/M09 A3019 RMK AO2 T00001091
KPPA 140455Z AUTO 35019G24KT 10SM CLR 00/M09 A3019 RMK AO2 T00041089
KPPA 140435Z AUTO 35020G24KT 10SM CLR 01/M09 A3019 RMK AO2 T00091090
KPPA 140415Z AUTO 36021G27KT 10SM CLR 01/M09 A3018 RMK AO2 T00121090
KPPA 140355Z AUTO 36022G30KT 10SM CLR 02/M09 A3017 RMK AO2 T00171090
KPPA 140335Z AUTO 36024G30KT 10SM CLR 02/M09 A3016 RMK AO2 T00201091
KPPA 140315Z AUTO 36022G28KT 10SM CLR 02/M09 A3015 RMK AO2 T00221095
KPPA 140255Z AUTO 36023G30KT 10SM CLR 03/M09 A3014 RMK AO2 T00251095
KPPA 140235Z AUTO 36022G29KT 10SM CLR 03/M09 A3014 RMK AO2 T00261095
KPPA 140215Z AUTO 36022G30KT 10SM CLR 03/M09 A3014 RMK AO2 T00281091
KPPA 140155Z AUTO 36024G30KT 10SM CLR 03/M09 A3013 RMK AO2 T00321095
KPPA 140135Z AUTO 36022G34KT 10SM CLR 04/M10 A3013 RMK AO2 T00361096
KPPA 140115Z AUTO 36022G30KT 10SM CLR 04/M09 A3012 RMK AO2 T00371095
KPPA 140055Z AUTO 36021G30KT 10SM CLR 04/M09 A3012 RMK AO2 T00411093
KPPA 140035Z AUTO 36022G31KT 10SM CLR 04/M09 A3011 RMK AO2 T00431089
KPPA 140015Z AUTO 36024G33KT 10SM CLR 05/M09 A3010 RMK AO2 T00471089
KPPA 132355Z AUTO 36025G35KT 10SM CLR 05/M09 A3008 RMK AO2 T00501088 10076 20050
KPPA 132335Z AUTO 36028G41KT 10SM CLR 06/M09 A3007 RMK AO2 T00551086
KPPA 132315Z AUTO 36030G40KT 10SM CLR 06/M08 A3005 RMK AO2 T00611083
KPPA 132255Z AUTO 36036G47KT 10SM CLR 07/M08 A3003 RMK AO2 T00671081
KPPA 132235Z AUTO 36035G43KT 10SM CLR 07/M07 A3004 RMK AO2 T00701074
KPPA 132215Z AUTO 36033G43KT 10SM CLR 07/M06 A3003 RMK AO2 T00731065
KPPA 132155Z AUTO 36035G41KT 10SM CLR 08/M07 A3003 RMK AO2 T00751067
KPPA 132135Z AUTO 36032G43KT 10SM CLR 08/M06 A3002 RMK AO2 T00761064
KPPA 132115Z AUTO 36036G43KT 10SM SCT120 07/M06 A3002 RMK AO2 LTG DSNT SE T00741060
KPPA 132055Z AUTO 35039G45KT 10SM BKN110 07/M06 A3001 RMK AO2 LTG DSNT SE T00671056
KPPA 132035Z AUTO 36035G43KT 10SM OVC120 06/M05 A3002 RMK AO2 LTG DSNT SE T00621053
KPPA 132015Z AUTO 36034G43KT 10SM BKN120 06/M05 A3002 RMK AO2 T00611051
KPPA 131955Z AUTO 36035G44KT 10SM SCT110 06/M05 A3001 RMK AO2 LTG DSNT SE T00621052
KPPA 131935Z AUTO 36035G41KT 10SM BKN110 06/M05 A3001 RMK AO2 LTG DSNT SE T00611053
KPPA 131915Z AUTO 36029G42KT 10SM BKN110 06/M05 A3001 RMK AO2 T00611053
KPPA 131855Z AUTO 36032G45KT 10SM BKN110 06/M05 A3001 RMK AO2 LTG DSNT E T00601054
KPPA 131835Z AUTO 36035G42KT 10SM BKN090 BKN110 06/M05 A3001 RMK AO2 T00581051
KPPA 131815Z AUTO 36028G37KT 10SM BKN080 OVC085 06/M04 A3003 RMK AO2 T00551045
KPPA 131755Z AUTO 36032G41KT 10SM OVC080 05/M04 A3003 RMK AO2 T00501042 10050 20031
KPPA 131735Z AUTO 36032G43KT 10SM OVC080 05/M04 A3003 RMK AO2 T00481043
KPPA 131715Z AUTO 36035G43KT 10SM BKN080 OVC090 05/M04 A3003 RMK AO2 T00471045
KPPA 131655Z AUTO 36034G43KT 10SM BKN080 05/M05 A3003 RMK AO2 LTG DSNT SE T00471048
KPPA 131635Z AUTO 36036G41KT 10SM SCT055 SCT065 SCT080 05/M05 A3002 RMK AO2 T00461050
KPPA 131615Z AUTO 36033G42KT 10SM SCT049 SCT055 SCT065 05/M05 A3001 RMK AO2 T00451050
KPPA 131555Z AUTO 36032G41KT 10SM SCT041 BKN060 BKN085 05/M04 A3000 RMK AO2 T00461045
KPPA 131535Z AUTO 36032G40KT 10SM OVC041 05/M04 A3000 RMK AO2 T00451041
KPPA 131515Z AUTO 36030G42KT 10SM OVC037 05/M04 A2999 RMK AO2 T00451036
KPPA 131455Z AUTO 36029G40KT 10SM OVC035 05/M03 A2998 RMK AO2 T00451029
KPPA 131435Z AUTO 36029G36KT 10SM OVC033 04/M02 A2996 RMK AO2 T00431022
KPPA 131415Z AUTO 01027G35KT 10SM BKN033 OVC110 04/M02 A2995 RMK AO2 T00421020
KPPA 131355Z AUTO 36030G38KT 10SM BKN031 OVC110 04/M02 A2993 RMK AO2 T00401022
KPPA 131335Z AUTO 36030G40KT 10SM SCT031 BKN110 04/M02 A2992 RMK AO2 T00381022
KPPA 131315Z AUTO 36031G39KT 10SM SCT031 04/M02 A2991 RMK AO2 T00361018
KPPA 131255Z AUTO 36031G38KT 10SM CLR 03/M01 A2989 RMK AO2 T00331014
KPPA 131235Z AUTO 36028G39KT 10SM SCT024 03/M01 A2987 RMK AO2 T00321010
KPPA 131215Z AUTO 36030G38KT 10SM BKN022 03/M01 A2987 RMK AO2 T00311006
KPPA 131155Z AUTO 36028G35KT 10SM SCT020 SCT055 03/00 A2985 RMK AO2 T00311005 10040 20010
KPPA 131135Z AUTO 01026G38KT 10SM SCT020 03/00 A2984 RMK AO2 T00301003
KPPA 131115Z AUTO 36025G36KT 10SM CLR 03/00 A2983 RMK AO2 T00301005
KPPA 131055Z AUTO 36023G32KT 10SM CLR 03/M01 A2982 RMK AO2 T00291010
KPPA 131035Z AUTO 36023G36KT 10SM SCT120 03/M01 A2981 RMK AO2 T00301011
KPPA 131015Z AUTO 36027G37KT 10SM SCT016 SCT024 03/M01 A2980 RMK AO2 T00301012
KPPA 130955Z AUTO 36028G34KT 10SM SCT002 BKN016 OVC024 03/01 A2977 RMK AO2 T00250011
KPPA 130935Z AUTO 36024G29KT 3SM BR OVC002 03/02 A2977 RMK AO2 T00300022
KPPA 130915Z AUTO 36022G31KT 1SM BR OVC002 04/03 A2974 RMK AO2 LTG DSNT SE T00360030
KPPA 130855Z AUTO 36025G30KT 1 3/4SM BR OVC002 04/03 A2970 RMK AO2 T00380031
KPPA 130835Z AUTO 01023G29KT 3/4SM -RA OVC002 03/03 A2967 RMK AO2 T00320025
KPPA 130815Z AUTO 02017G23KT 1/2SM -SN OVC002 02/02 A2965 RMK AO2 LTG DSNT S T00220015
KPPA 130755Z AUTO 01020G29KT 2 1/2SM BR SCT002 SCT007 01/M01 A2963 RMK AO2 T00111006
KPPA 130735Z AUTO 32014KT 10SM CLR 02/M04 A2961 RMK AO2 T00201036